sensor_id;sensor_type;location;lat;lon;timestamp;pressure;altitude;pressure_sealevel;temperature
10869;BMP180;62667;48.698;8.762;2023-11-21T00:01:38;95356.00;;;6.80
10869;BMP180;62667;48.698;8.762;2023-11-21T00:04:06;95348.00;;;6.70
10869;BMP180;62667;48.698;8.762;2023-11-21T00:06:34;95358.00;;;6.80
10869;BMP180;62667;48.698;8.762;2023-11-21T00:09:02;95351.00;;;6.80
10869;BMP180;62667;48.698;8.762;2023-11-21T00:11:31;95358.00;;;6.80
10869;BMP180;62667;48.698;8.762;2023-11-21T00:13:58;95343.00;;;6.80
10869;BMP180;62667;48.698;8.762;2023-11-21T00:16:26;95340.00;;;6.90
10869;BMP180;62667;48.698;8.762;2023-11-21T00:18:53;95336.00;;;6.90
10869;BMP180;62667;48.698;8.762;2023-11-21T00:21:21;95331.00;;;7.00
10869;BMP180;62667;48.698;8.762;2023-11-21T00:23:48;95343.00;;;7.00
10869;BMP180;62667;48.698;8.762;2023-11-21T00:26:17;95334.00;;;7.10
10869;BMP180;62667;48.698;8.762;2023-11-21T00:28:44;95337.00;;;7.00
10869;BMP180;62667;48.698;8.762;2023-11-21T00:31:12;95335.00;;;7.00
10869;BMP180;62667;48.698;8.762;2023-11-21T00:33:40;95338.00;;;7.10
10869;BMP180;62667;48.698;8.762;2023-11-21T00:36:08;95342.00;;;6.90
10869;BMP180;62667;48.698;8.762;2023-11-21T00:38:36;95335.00;;;7.00
10869;BMP180;62667;48.698;8.762;2023-11-21T00:41:06;95341.00;;;7.10
10869;BMP180;62667;48.698;8.762;2023-11-21T00:43:35;95342.00;;;7.10
10869;BMP180;62667;48.698;8.762;2023-11-21T00:46:04;95342.00;;;7.00
10869;BMP180;62667;48.698;8.762;2023-11-21T00:48:33;95341.00;;;6.90
10869;BMP180;62667;48.698;8.762;2023-11-21T00:51:00;95334.00;;;7.00
10869;BMP180;62667;48.698;8.762;2023-11-21T00:53:30;95338.00;;;7.10
10869;BMP180;62667;48.698;8.762;2023-11-21T00:55:58;95337.00;;;7.10
10869;BMP180;62667;48.698;8.762;2023-11-21T00:58:25;95333.00;;;7.20
10869;BMP180;62667;48.698;8.762;2023-11-21T01:00:54;95338.00;;;7.10
10869;BMP180;62667;48.698;8.762;2023-11-21T01:03:21;95340.00;;;7.10
10869;BMP180;62667;48.698;8.762;2023-11-21T01:05:49;95326.00;;;7.20
10869;BMP180;62667;48.698;8.762;2023-11-21T01:08:16;95335.00;;;7.10
10869;BMP180;62667;48.698;8.762;2023-11-21T01:10:44;95319.00;;;7.10
10869;BMP180;62667;48.698;8.762;2023-11-21T01:13:11;95341.00;;;7.20
10869;BMP180;62667;48.698;8.762;2023-11-21T01:15:41;95345.00;;;7.00
10869;BMP180;62667;48.698;8.762;2023-11-21T01:18:10;95350.00;;;7.10
10869;BMP180;62667;48.698;8.762;2023-11-21T01:20:37;95337.00;;;7.00
10869;BMP180;62667;48.698;8.762;2023-11-21T01:23:05;95350.00;;;7.10
10869;BMP180;62667;48.698;8.762;2023-11-21T01:25:32;95344.00;;;7.10
10869;BMP180;62667;48.698;8.762;2023-11-21T01:27:59;95338.00;;;7.00
10869;BMP180;62667;48.698;8.762;2023-11-21T01:30:27;95337.00;;;7.10
10869;BMP180;62667;48.698;8.762;2023-11-21T01:32:54;95342.00;;;7.20
10869;BMP180;62667;48.698;8.762;2023-11-21T01:35:24;95328.00;;;7.10
10869;BMP180;62667;48.698;8.762;2023-11-21T01:37:51;95329.00;;;7.00
10869;BMP180;62667;48.698;8.762;2023-11-21T01:40:22;95325.00;;;7.00
10869;BMP180;62667;48.698;8.762;2023-11-21T01:42:50;95322.00;;;6.90
10869;BMP180;62667;48.698;8.762;2023-11-21T01:45:18;95318.00;;;6.70
10869;BMP180;62667;48.698;8.762;2023-11-21T01:47:46;95326.00;;;6.70
10869;BMP180;62667;48.698;8.762;2023-11-21T01:50:15;95329.00;;;6.70
10869;BMP180;62667;48.698;8.762;2023-11-21T01:52:45;95330.00;;;6.80
10869;BMP180;62667;48.698;8.762;2023-11-21T01:55:15;95336.00;;;6.80
10869;BMP180;62667;48.698;8.762;2023-11-21T01:57:45;95325.00;;;6.80
10869;BMP180;62667;48.698;8.762;2023-11-21T02:00:13;95329.00;;;6.90
10869;BMP180;62667;48.698;8.762;2023-11-21T02:02:46;95328.00;;;7.10
10869;BMP180;62667;48.698;8.762;2023-11-21T02:05:17;95330.00;;;7.00
10869;BMP180;62667;48.698;8.762;2023-11-21T02:07:47;95322.00;;;7.00
10869;BMP180;62667;48.698;8.762;2023-11-21T02:10:15;95337.00;;;7.00
10869;BMP180;62667;48.698;8.762;2023-11-21T02:12:43;95330.00;;;7.10
10869;BMP180;62667;48.698;8.762;2023-11-21T02:15:12;95327.00;;;6.90
10869;BMP180;62667;48.698;8.762;2023-11-21T02:17:46;95322.00;;;7.00
10869;BMP180;62667;48.698;8.762;2023-11-21T02:20:18;95320.00;;;6.90
10869;BMP180;62667;48.698;8.762;2023-11-21T02:22:50;95328.00;;;6.90
10869;BMP180;62667;48.698;8.762;2023-11-21T02:25:19;95328.00;;;6.90
10869;BMP180;62667;48.698;8.762;2023-11-21T02:27:46;95332.00;;;6.80
10869;BMP180;62667;48.698;8.762;2023-11-21T02:30:15;95327.00;;;6.80
10869;BMP180;62667;48.698;8.762;2023-11-21T02:32:42;95330.00;;;6.80
10869;BMP180;62667;48.698;8.762;2023-11-21T02:35:10;95326.00;;;6.80
10869;BMP180;62667;48.698;8.762;2023-11-21T02:37:38;95332.00;;;6.90
10869;BMP180;62667;48.698;8.762;2023-11-21T02:40:10;95326.00;;;7.10
10869;BMP180;62667;48.698;8.762;2023-11-21T02:42:39;95317.00;;;7.00
10869;BMP180;62667;48.698;8.762;2023-11-21T02:45:07;95320.00;;;7.20
10869;BMP180;62667;48.698;8.762;2023-11-21T02:47:37;95321.00;;;7.10
10869;BMP180;62667;48.698;8.762;2023-11-21T02:50:06;95315.00;;;7.00
10869;BMP180;62667;48.698;8.762;2023-11-21T02:52:34;95316.00;;;6.90
10869;BMP180;62667;48.698;8.762;2023-11-21T02:55:01;95316.00;;;6.90
10869;BMP180;62667;48.698;8.762;2023-11-21T02:57:30;95309.00;;;6.80
10869;BMP180;62667;48.698;8.762;2023-11-21T02:59:58;95322.00;;;6.80
10869;BMP180;62667;48.698;8.762;2023-11-21T03:02:26;95311.00;;;6.80
10869;BMP180;62667;48.698;8.762;2023-11-21T03:04:53;95312.00;;;6.80
10869;BMP180;62667;48.698;8.762;2023-11-21T03:07:21;95313.00;;;6.80
10869;BMP180;62667;48.698;8.762;2023-11-21T03:09:48;95308.00;;;6.60
10869;BMP180;62667;48.698;8.762;2023-11-21T03:12:15;95305.00;;;6.50
10869;BMP180;62667;48.698;8.762;2023-11-21T03:14:44;95299.00;;;6.50
10869;BMP180;62667;48.698;8.762;2023-11-21T03:17:12;95306.00;;;6.50
10869;BMP180;62667;48.698;8.762;2023-11-21T03:19:42;95308.00;;;6.50
10869;BMP180;62667;48.698;8.762;2023-11-21T03:22:09;95313.00;;;6.60
10869;BMP180;62667;48.698;8.762;2023-11-21T03:24:37;95307.00;;;6.50
10869;BMP180;62667;48.698;8.762;2023-11-21T03:27:05;95306.00;;;6.40
10869;BMP180;62667;48.698;8.762;2023-11-21T03:29:34;95313.00;;;6.60
10869;BMP180;62667;48.698;8.762;2023-11-21T03:32:03;95313.00;;;6.50
10869;BMP180;62667;48.698;8.762;2023-11-21T03:34:31;95311.00;;;6.60
10869;BMP180;62667;48.698;8.762;2023-11-21T03:36:59;95306.00;;;6.60
10869;BMP180;62667;48.698;8.762;2023-11-21T03:39:26;95319.00;;;6.60
10869;BMP180;62667;48.698;8.762;2023-11-21T03:41:55;95319.00;;;6.50
10869;BMP180;62667;48.698;8.762;2023-11-21T03:44:23;95317.00;;;6.60
10869;BMP180;62667;48.698;8.762;2023-11-21T03:46:50;95334.00;;;6.60
10869;BMP180;62667;48.698;8.762;2023-11-21T03:49:19;95325.00;;;6.60
10869;BMP180;62667;48.698;8.762;2023-11-21T03:51:46;95330.00;;;6.70
10869;BMP180;62667;48.698;8.762;2023-11-21T03:54:15;95334.00;;;6.70
10869;BMP180;62667;48.698;8.762;2023-11-21T03:56:43;95332.00;;;6.80
10869;BMP180;62667;48.698;8.762;2023-11-21T03:59:10;95330.00;;;6.90
10869;BMP180;62667;48.698;8.762;2023-11-21T04:01:38;95332.00;;;6.80
10869;BMP180;62667;48.698;8.762;2023-11-21T04:04:05;95333.00;;;6.80
10869;BMP180;62667;48.698;8.762;2023-11-21T04:06:34;95332.00;;;6.80
10869;BMP180;62667;48.698;8.762;2023-11-21T04:09:03;95323.00;;;6.80
10869;BMP180;62667;48.698;8.762;2023-11-21T04:11:31;95318.00;;;6.70
10869;BMP180;62667;48.698;8.762;2023-11-21T04:13:59;95331.00;;;6.70
10869;BMP180;62667;48.698;8.762;2023-11-21T04:16:26;95337.00;;;6.70
10869;BMP180;62667;48.698;8.762;2023-11-21T04:18:54;95334.00;;;6.80
10869;BMP180;62667;48.698;8.762;2023-11-21T04:21:21;95329.00;;;6.70
10869;BMP180;62667;48.698;8.762;2023-11-21T04:23:50;95337.00;;;6.80
10869;BMP180;62667;48.698;8.762;2023-11-21T04:26:17;95330.00;;;6.90
10869;BMP180;62667;48.698;8.762;2023-11-21T04:28:45;95330.00;;;7.00
10869;BMP180;62667;48.698;8.762;2023-11-21T04:31:14;95339.00;;;6.90
10869;BMP180;62667;48.698;8.762;2023-11-21T04:33:41;95338.00;;;6.90
10869;BMP180;62667;48.698;8.762;2023-11-21T04:36:09;95345.00;;;6.80
10869;BMP180;62667;48.698;8.762;2023-11-21T04:38:36;95355.00;;;6.70
10869;BMP180;62667;48.698;8.762;2023-11-21T04:41:05;95349.00;;;6.70
10869;BMP180;62667;48.698;8.762;2023-11-21T04:43:33;95345.00;;;6.60
10869;BMP180;62667;48.698;8.762;2023-11-21T04:46:00;95346.00;;;6.60
10869;BMP180;62667;48.698;8.762;2023-11-21T04:48:28;95350.00;;;6.60
10869;BMP180;62667;48.698;8.762;2023-11-21T04:50:56;95349.00;;;6.60
10869;BMP180;62667;48.698;8.762;2023-11-21T04:53:23;95349.00;;;6.60
10869;BMP180;62667;48.698;8.762;2023-11-21T04:55:50;95350.00;;;6.70
10869;BMP180;62667;48.698;8.762;2023-11-21T04:58:20;95342.00;;;6.60
10869;BMP180;62667;48.698;8.762;2023-11-21T05:00:47;95338.00;;;6.60
10869;BMP180;62667;48.698;8.762;2023-11-21T05:03:15;95342.00;;;6.70
10869;BMP180;62667;48.698;8.762;2023-11-21T05:05:43;95347.00;;;6.60
10869;BMP180;62667;48.698;8.762;2023-11-21T05:08:10;95345.00;;;6.60
10869;BMP180;62667;48.698;8.762;2023-11-21T05:10:38;95346.00;;;6.60
10869;BMP180;62667;48.698;8.762;2023-11-21T05:13:05;95345.00;;;6.70
10869;BMP180;62667;48.698;8.762;2023-11-21T05:15:37;95342.00;;;6.70
10869;BMP180;62667;48.698;8.762;2023-11-21T05:18:05;95355.00;;;6.70
10869;BMP180;62667;48.698;8.762;2023-11-21T05:20:32;95355.00;;;6.70
10869;BMP180;62667;48.698;8.762;2023-11-21T05:23:00;95364.00;;;6.80
10869;BMP180;62667;48.698;8.762;2023-11-21T05:25:27;95366.00;;;6.90
10869;BMP180;62667;48.698;8.762;2023-11-21T05:27:57;95355.00;;;6.90
10869;BMP180;62667;48.698;8.762;2023-11-21T05:30:27;95366.00;;;6.80
10869;BMP180;62667;48.698;8.762;2023-11-21T05:32:56;95368.00;;;6.80
10869;BMP180;62667;48.698;8.762;2023-11-21T05:35:24;95384.00;;;6.80
10869;BMP180;62667;48.698;8.762;2023-11-21T05:37:51;95375.00;;;6.80
10869;BMP180;62667;48.698;8.762;2023-11-21T05:40:19;95377.00;;;6.80
10869;BMP180;62667;48.698;8.762;2023-11-21T05:42:48;95378.00;;;6.80
10869;BMP180;62667;48.698;8.762;2023-11-21T05:45:17;95388.00;;;6.70
10869;BMP180;62667;48.698;8.762;2023-11-21T05:47:45;95392.00;;;6.70
10869;BMP180;62667;48.698;8.762;2023-11-21T05:50:16;95378.00;;;6.70
10869;BMP180;62667;48.698;8.762;2023-11-21T05:52:45;95380.00;;;6.70
10869;BMP180;62667;48.698;8.762;2023-11-21T05:55:13;95384.00;;;6.50
10869;BMP180;62667;48.698;8.762;2023-11-21T05:57:42;95385.00;;;6.50
10869;BMP180;62667;48.698;8.762;2023-11-21T06:00:12;95380.00;;;6.50
10869;BMP180;62667;48.698;8.762;2023-11-21T06:02:46;95396.00;;;6.50
10869;BMP180;62667;48.698;8.762;2023-11-21T06:05:18;95394.00;;;6.50
10869;BMP180;62667;48.698;8.762;2023-11-21T06:07:45;95387.00;;;6.40
10869;BMP180;62667;48.698;8.762;2023-11-21T06:10:13;95396.00;;;6.50
10869;BMP180;62667;48.698;8.762;2023-11-21T06:12:41;95395.00;;;6.30
10869;BMP180;62667;48.698;8.762;2023-11-21T06:15:10;95392.00;;;6.40
10869;BMP180;62667;48.698;8.762;2023-11-21T06:17:40;95401.00;;;6.40
10869;BMP180;62667;48.698;8.762;2023-11-21T06:20:09;95393.00;;;6.40
10869;BMP180;62667;48.698;8.762;2023-11-21T06:22:42;95389.00;;;6.40
10869;BMP180;62667;48.698;8.762;2023-11-21T06:25:10;95394.00;;;6.50
10869;BMP180;62667;48.698;8.762;2023-11-21T06:27:41;95396.00;;;6.60
10869;BMP180;62667;48.698;8.762;2023-11-21T06:30:09;95396.00;;;6.40
10869;BMP180;62667;48.698;8.762;2023-11-21T06:32:38;95396.00;;;6.50
10869;BMP180;62667;48.698;8.762;2023-11-21T06:35:07;95395.00;;;6.50
10869;BMP180;62667;48.698;8.762;2023-11-21T06:37:36;95397.00;;;6.60
10869;BMP180;62667;48.698;8.762;2023-11-21T06:40:06;95412.00;;;6.60
10869;BMP180;62667;48.698;8.762;2023-11-21T06:42:33;95405.00;;;6.70
10869;BMP180;62667;48.698;8.762;2023-11-21T06:45:01;95417.00;;;6.70
10869;BMP180;62667;48.698;8.762;2023-11-21T06:47:30;95417.00;;;6.70
10869;BMP180;62667;48.698;8.762;2023-11-21T06:49:58;95420.00;;;6.80
10869;BMP180;62667;48.698;8.762;2023-11-21T06:52:26;95419.00;;;6.70
10869;BMP180;62667;48.698;8.762;2023-11-21T06:54:53;95433.00;;;6.80
10869;BMP180;62667;48.698;8.762;2023-11-21T06:57:23;95434.00;;;6.80
10869;BMP180;62667;48.698;8.762;2023-11-21T06:59:51;95441.00;;;6.90
10869;BMP180;62667;48.698;8.762;2023-11-21T07:02:18;95439.00;;;6.80
10869;BMP180;62667;48.698;8.762;2023-11-21T07:04:46;95445.00;;;6.80
10869;BMP180;62667;48.698;8.762;2023-11-21T07:07:13;95439.00;;;6.80
10869;BMP180;62667;48.698;8.762;2023-11-21T07:09:41;95440.00;;;6.90
10869;BMP180;62667;48.698;8.762;2023-11-21T07:12:08;95442.00;;;6.90
10869;BMP180;62667;48.698;8.762;2023-11-21T07:14:38;95442.00;;;6.80
10869;BMP180;62667;48.698;8.762;2023-11-21T07:17:09;95447.00;;;6.90
10869;BMP180;62667;48.698;8.762;2023-11-21T07:19:38;95443.00;;;7.00
10869;BMP180;62667;48.698;8.762;2023-11-21T07:22:07;95451.00;;;7.00
10869;BMP180;62667;48.698;8.762;2023-11-21T07:24:35;95462.00;;;7.10
10869;BMP180;62667;48.698;8.762;2023-11-21T07:27:03;95461.00;;;7.00
10869;BMP180;62667;48.698;8.762;2023-11-21T07:29:31;95458.00;;;7.10
10869;BMP180;62667;48.698;8.762;2023-11-21T07:32:00;95468.00;;;7.10
10869;BMP180;62667;48.698;8.762;2023-11-21T07:34:28;95468.00;;;7.10
10869;BMP180;62667;48.698;8.762;2023-11-21T07:36:55;95471.00;;;7.10
10869;BMP180;62667;48.698;8.762;2023-11-21T07:39:23;95479.00;;;7.10
10869;BMP180;62667;48.698;8.762;2023-11-21T07:41:50;95473.00;;;7.10
10869;BMP180;62667;48.698;8.762;2023-11-21T07:44:18;95479.00;;;7.20
10869;BMP180;62667;48.698;8.762;2023-11-21T07:46:46;95481.00;;;7.20
10869;BMP180;62667;48.698;8.762;2023-11-21T07:49:14;95481.00;;;7.30
10869;BMP180;62667;48.698;8.762;2023-11-21T07:51:44;95480.00;;;7.30
10869;BMP180;62667;48.698;8.762;2023-11-21T07:54:11;95489.00;;;7.30
10869;BMP180;62667;48.698;8.762;2023-11-21T07:56:39;95487.00;;;7.30
10869;BMP180;62667;48.698;8.762;2023-11-21T07:59:06;95491.00;;;7.40
10869;BMP180;62667;48.698;8.762;2023-11-21T08:01:34;95490.00;;;7.40
10869;BMP180;62667;48.698;8.762;2023-11-21T08:04:01;95497.00;;;7.40
10869;BMP180;62667;48.698;8.762;2023-11-21T08:06:31;95494.00;;;7.40
10869;BMP180;62667;48.698;8.762;2023-11-21T08:08:59;95492.00;;;7.30
10869;BMP180;62667;48.698;8.762;2023-11-21T08:11:26;95501.00;;;7.40
10869;BMP180;62667;48.698;8.762;2023-11-21T08:13:55;95495.00;;;7.50
10869;BMP180;62667;48.698;8.762;2023-11-21T08:16:23;95492.00;;;7.40
10869;BMP180;62667;48.698;8.762;2023-11-21T08:18:51;95503.00;;;7.60
10869;BMP180;62667;48.698;8.762;2023-11-21T08:21:18;95497.00;;;7.70
10869;BMP180;62667;48.698;8.762;2023-11-21T08:23:47;95505.00;;;7.50
10869;BMP180;62667;48.698;8.762;2023-11-21T08:26:19;95486.00;;;7.60
10869;BMP180;62667;48.698;8.762;2023-11-21T08:28:47;95493.00;;;7.40
10869;BMP180;62667;48.698;8.762;2023-11-21T08:31:14;95500.00;;;7.50
10869;BMP180;62667;48.698;8.762;2023-11-21T08:33:42;95497.00;;;7.40
10869;BMP180;62667;48.698;8.762;2023-11-21T08:36:10;95502.00;;;7.60
10869;BMP180;62667;48.698;8.762;2023-11-21T08:38:38;95509.00;;;7.90
10869;BMP180;62667;48.698;8.762;2023-11-21T08:41:07;95510.00;;;7.80
10869;BMP180;62667;48.698;8.762;2023-11-21T08:43:36;95501.00;;;7.80
10869;BMP180;62667;48.698;8.762;2023-11-21T08:46:06;95517.00;;;7.70
10869;BMP180;62667;48.698;8.762;2023-11-21T08:48:36;95518.00;;;7.80
10869;BMP180;62667;48.698;8.762;2023-11-21T08:51:03;95517.00;;;7.90
10869;BMP180;62667;48.698;8.762;2023-11-21T08:53:31;95520.00;;;7.80
10869;BMP180;62667;48.698;8.762;2023-11-21T08:55:59;95520.00;;;7.70
10869;BMP180;62667;48.698;8.762;2023-11-21T08:58:28;95520.00;;;7.90
10869;BMP180;62667;48.698;8.762;2023-11-21T09:00:55;95522.00;;;7.90
10869;BMP180;62667;48.698;8.762;2023-11-21T09:03:22;95522.00;;;8.00
10869;BMP180;62667;48.698;8.762;2023-11-21T09:05:50;95522.00;;;8.00
10869;BMP180;62667;48.698;8.762;2023-11-21T09:08:18;95525.00;;;8.00
10869;BMP180;62667;48.698;8.762;2023-11-21T09:10:45;95525.00;;;7.90
10869;BMP180;62667;48.698;8.762;2023-11-21T09:13:13;95525.00;;;7.70
10869;BMP180;62667;48.698;8.762;2023-11-21T09:15:44;95529.00;;;7.90
10869;BMP180;62667;48.698;8.762;2023-11-21T09:18:13;95542.00;;;8.00
10869;BMP180;62667;48.698;8.762;2023-11-21T09:20:42;95541.00;;;8.20
10869;BMP180;62667;48.698;8.762;2023-11-21T09:23:10;95539.00;;;8.10
10869;BMP180;62667;48.698;8.762;2023-11-21T09:25:37;95544.00;;;8.20
10869;BMP180;62667;48.698;8.762;2023-11-21T09:28:06;95549.00;;;8.20
10869;BMP180;62667;48.698;8.762;2023-11-21T09:30:34;95553.00;;;8.10
10869;BMP180;62667;48.698;8.762;2023-11-21T09:33:04;95550.00;;;8.00
10869;BMP180;62667;48.698;8.762;2023-11-21T09:35:34;95566.00;;;8.00
10869;BMP180;62667;48.698;8.762;2023-11-21T09:38:04;95558.00;;;8.00
10869;BMP180;62667;48.698;8.762;2023-11-21T09:40:38;95566.00;;;8.00
10869;BMP180;62667;48.698;8.762;2023-11-21T09:43:08;95570.00;;;7.90
10869;BMP180;62667;48.698;8.762;2023-11-21T09:45:45;95565.00;;;7.80
10869;BMP180;62667;48.698;8.762;2023-11-21T09:48:15;95573.00;;;7.90
10869;BMP180;62667;48.698;8.762;2023-11-21T09:50:44;95573.00;;;7.80
10869;BMP180;62667;48.698;8.762;2023-11-21T09:53:18;95569.00;;;7.70
10869;BMP180;62667;48.698;8.762;2023-11-21T09:55:48;95570.00;;;7.80
10869;BMP180;62667;48.698;8.762;2023-11-21T09:58:18;95571.00;;;7.80
10869;BMP180;62667;48.698;8.762;2023-11-21T10:00:47;95572.00;;;7.90
10869;BMP180;62667;48.698;8.762;2023-11-21T10:03:16;95581.00;;;7.80
10869;BMP180;62667;48.698;8.762;2023-11-21T10:05:44;95574.00;;;7.90
10869;BMP180;62667;48.698;8.762;2023-11-21T10:08:13;95569.00;;;7.90
10869;BMP180;62667;48.698;8.762;2023-11-21T10:10:44;95573.00;;;8.00
10869;BMP180;62667;48.698;8.762;2023-11-21T10:13:13;95577.00;;;8.10
10869;BMP180;62667;48.698;8.762;2023-11-21T10:15:43;95583.00;;;8.10
10869;BMP180;62667;48.698;8.762;2023-11-21T10:18:16;95580.00;;;8.20
10869;BMP180;62667;48.698;8.762;2023-11-21T10:20:44;95576.00;;;8.30
10869;BMP180;62667;48.698;8.762;2023-11-21T10:23:16;95578.00;;;8.50
10869;BMP180;62667;48.698;8.762;2023-11-21T10:25:43;95573.00;;;8.50
10869;BMP180;62667;48.698;8.762;2023-11-21T10:28:11;95576.00;;;8.50
10869;BMP180;62667;48.698;8.762;2023-11-21T10:30:38;95582.00;;;8.50
10869;BMP180;62667;48.698;8.762;2023-11-21T10:33:07;95580.00;;;8.50
10869;BMP180;62667;48.698;8.762;2023-11-21T10:35:46;95591.00;;;8.60
10869;BMP180;62667;48.698;8.762;2023-11-21T10:38:17;95590.00;;;8.60
10869;BMP180;62667;48.698;8.762;2023-11-21T10:40:46;95592.00;;;8.70
10869;BMP180;62667;48.698;8.762;2023-11-21T10:43:14;95592.00;;;8.60
10869;BMP180;62667;48.698;8.762;2023-11-21T10:45:42;95591.00;;;8.70
10869;BMP180;62667;48.698;8.762;2023-11-21T10:48:12;95592.00;;;8.70
10869;BMP180;62667;48.698;8.762;2023-11-21T10:50:41;95587.00;;;8.70
10869;BMP180;62667;48.698;8.762;2023-11-21T10:53:11;95593.00;;;8.70
10869;BMP180;62667;48.698;8.762;2023-11-21T10:55:39;95587.00;;;8.70
10869;BMP180;62667;48.698;8.762;2023-11-21T10:58:07;95583.00;;;8.80
10869;BMP180;62667;48.698;8.762;2023-11-21T11:00:38;95587.00;;;9.00
10869;BMP180;62667;48.698;8.762;2023-11-21T11:03:06;95582.00;;;9.20
10869;BMP180;62667;48.698;8.762;2023-11-21T11:05:41;95579.00;;;9.10
10869;BMP180;62667;48.698;8.762;2023-11-21T11:08:14;95580.00;;;9.20
10869;BMP180;62667;48.698;8.762;2023-11-21T11:10:45;95582.00;;;9.20
10869;BMP180;62667;48.698;8.762;2023-11-21T11:13:14;95591.00;;;9.10
10869;BMP180;62667;48.698;8.762;2023-11-21T11:15:42;95581.00;;;9.10
10869;BMP180;62667;48.698;8.762;2023-11-21T11:18:10;95594.00;;;8.90
10869;BMP180;62667;48.698;8.762;2023-11-21T11:20:40;95597.00;;;8.90
10869;BMP180;62667;48.698;8.762;2023-11-21T11:23:29;95593.00;;;9.10
10869;BMP180;62667;48.698;8.762;2023-11-21T11:26:10;95596.00;;;9.10
10869;BMP180;62667;48.698;8.762;2023-11-21T11:28:51;95595.00;;;9.30
10869;BMP180;62667;48.698;8.762;2023-11-21T11:31:39;95602.00;;;9.50
10869;BMP180;62667;48.698;8.762;2023-11-21T11:34:15;95595.00;;;9.40
10869;BMP180;62667;48.698;8.762;2023-11-21T11:36:54;95601.00;;;9.30
10869;BMP180;62667;48.698;8.762;2023-11-21T11:39:34;95598.00;;;9.30
10869;BMP180;62667;48.698;8.762;2023-11-21T11:42:04;95607.00;;;9.30
10869;BMP180;62667;48.698;8.762;2023-11-21T11:44:49;95608.00;;;9.30
10869;BMP180;62667;48.698;8.762;2023-11-21T11:47:22;95600.00;;;9.20
10869;BMP180;62667;48.698;8.762;2023-11-21T11:49:58;95600.00;;;9.20
10869;BMP180;62667;48.698;8.762;2023-11-21T11:52:41;95610.00;;;9.20
10869;BMP180;62667;48.698;8.762;2023-11-21T11:55:11;95605.00;;;9.20
10869;BMP180;62667;48.698;8.762;2023-11-21T11:57:41;95602.00;;;9.30
10869;BMP180;62667;48.698;8.762;2023-11-21T12:00:18;95601.00;;;9.20
10869;BMP180;62667;48.698;8.762;2023-11-21T12:02:49;95605.00;;;9.30
10869;BMP180;62667;48.698;8.762;2023-11-21T12:05:18;95605.00;;;9.30
10869;BMP180;62667;48.698;8.762;2023-11-21T12:07:48;95599.00;;;9.30
10869;BMP180;62667;48.698;8.762;2023-11-21T12:10:17;95607.00;;;9.40
10869;BMP180;62667;48.698;8.762;2023-11-21T12:12:50;95615.00;;;9.30
10869;BMP180;62667;48.698;8.762;2023-11-21T12:15:19;95605.00;;;9.00
10869;BMP180;62667;48.698;8.762;2023-11-21T12:17:48;95616.00;;;9.20
10869;BMP180;62667;48.698;8.762;2023-11-21T12:20:18;95613.00;;;9.10
10869;BMP180;62667;48.698;8.762;2023-11-21T12:22:49;95605.00;;;9.10
10869;BMP180;62667;48.698;8.762;2023-11-21T12:25:19;95620.00;;;9.00
10869;BMP180;62667;48.698;8.762;2023-11-21T12:27:49;95614.00;;;9.10
10869;BMP180;62667;48.698;8.762;2023-11-21T12:30:18;95626.00;;;9.00
10869;BMP180;62667;48.698;8.762;2023-11-21T12:32:49;95618.00;;;9.00
10869;BMP180;62667;48.698;8.762;2023-11-21T12:35:18;95619.00;;;9.00
10869;BMP180;62667;48.698;8.762;2023-11-21T12:37:47;95625.00;;;8.90
10869;BMP180;62667;48.698;8.762;2023-11-21T12:40:17;95626.00;;;8.90
10869;BMP180;62667;48.698;8.762;2023-11-21T12:42:46;95628.00;;;8.90
10869;BMP180;62667;48.698;8.762;2023-11-21T12:45:24;95631.00;;;9.00
10869;BMP180;62667;48.698;8.762;2023-11-21T12:47:56;95633.00;;;9.10
10869;BMP180;62667;48.698;8.762;2023-11-21T12:50:27;95635.00;;;8.90
10869;BMP180;62667;48.698;8.762;2023-11-21T12:53:00;95641.00;;;8.90
10869;BMP180;62667;48.698;8.762;2023-11-21T12:55:31;95635.00;;;8.80
10869;BMP180;62667;48.698;8.762;2023-11-21T12:58:04;95639.00;;;8.80
10869;BMP180;62667;48.698;8.762;2023-11-21T13:00:36;95640.00;;;8.70
10869;BMP180;62667;48.698;8.762;2023-11-21T13:03:06;95641.00;;;8.70
10869;BMP180;62667;48.698;8.762;2023-11-21T13:05:36;95644.00;;;8.80
10869;BMP180;62667;48.698;8.762;2023-11-21T13:08:11;95646.00;;;8.80
10869;BMP180;62667;48.698;8.762;2023-11-21T13:10:43;95642.00;;;8.90
10869;BMP180;62667;48.698;8.762;2023-11-21T13:13:13;95642.00;;;8.90
10869;BMP180;62667;48.698;8.762;2023-11-21T13:15:48;95655.00;;;9.00
10869;BMP180;62667;48.698;8.762;2023-11-21T13:18:16;95655.00;;;8.90
10869;BMP180;62667;48.698;8.762;2023-11-21T13:20:44;95644.00;;;9.00
10869;BMP180;62667;48.698;8.762;2023-11-21T13:23:12;95648.00;;;9.20
10869;BMP180;62667;48.698;8.762;2023-11-21T13:25:43;95652.00;;;9.30
10869;BMP180;62667;48.698;8.762;2023-11-21T13:28:11;95645.00;;;9.50
10869;BMP180;62667;48.698;8.762;2023-11-21T13:30:41;95653.00;;;9.50
10869;BMP180;62667;48.698;8.762;2023-11-21T13:33:11;95653.00;;;9.50
10869;BMP180;62667;48.698;8.762;2023-11-21T13:35:44;95673.00;;;9.50
10869;BMP180;62667;48.698;8.762;2023-11-21T13:38:15;95656.00;;;9.50
10869;BMP180;62667;48.698;8.762;2023-11-21T13:40:49;95666.00;;;9.50
10869;BMP180;62667;48.698;8.762;2023-11-21T13:43:20;95670.00;;;9.30
10869;BMP180;62667;48.698;8.762;2023-11-21T13:45:49;95681.00;;;9.10
10869;BMP180;62667;48.698;8.762;2023-11-21T13:48:18;95679.00;;;9.00
10869;BMP180;62667;48.698;8.762;2023-11-21T13:50:54;95681.00;;;8.90
10869;BMP180;62667;48.698;8.762;2023-11-21T13:53:25;95700.00;;;8.70
10869;BMP180;62667;48.698;8.762;2023-11-21T13:55:54;95692.00;;;8.60
10869;BMP180;62667;48.698;8.762;2023-11-21T13:58:24;95697.00;;;8.50
10869;BMP180;62667;48.698;8.762;2023-11-21T14:01:01;95704.00;;;8.40
10869;BMP180;62667;48.698;8.762;2023-11-21T14:03:32;95699.00;;;8.30
10869;BMP180;62667;48.698;8.762;2023-11-21T14:06:09;95709.00;;;8.50
10869;BMP180;62667;48.698;8.762;2023-11-21T14:08:42;95706.00;;;8.30
10869;BMP180;62667;48.698;8.762;2023-11-21T14:11:11;95720.00;;;8.20
10869;BMP180;62667;48.698;8.762;2023-11-21T14:13:44;95706.00;;;8.30
10869;BMP180;62667;48.698;8.762;2023-11-21T14:16:14;95719.00;;;8.40
10869;BMP180;62667;48.698;8.762;2023-11-21T14:18:44;95718.00;;;8.30
10869;BMP180;62667;48.698;8.762;2023-11-21T14:21:21;95717.00;;;8.20
10869;BMP180;62667;48.698;8.762;2023-11-21T14:23:49;95720.00;;;8.30
10869;BMP180;62667;48.698;8.762;2023-11-21T14:26:19;95730.00;;;8.20
10869;BMP180;62667;48.698;8.762;2023-11-21T14:28:47;95721.00;;;8.30
10869;BMP180;62667;48.698;8.762;2023-11-21T14:31:15;95716.00;;;8.20
10869;BMP180;62667;48.698;8.762;2023-11-21T14:33:43;95725.00;;;8.00